createdAt,value
2018-01-22T00:00:17.240Z,1011.69
2018-01-22T00:01:17.209Z,1011.67
2018-01-22T00:02:17.379Z,1011.65
2018-01-22T00:03:17.148Z,1011.65
2018-01-22T00:04:17.118Z,1011.63
2018-01-22T00:05:17.090Z,1011.69
2018-01-22T00:06:17.059Z,1011.65
2018-01-22T00:07:17.031Z,1011.58
2018-01-22T00:08:17.149Z,1011.63
2018-01-22T00:09:16.970Z,1011.61
2018-01-22T00:10:16.940Z,1011.62
2018-01-22T00:11:16.912Z,1011.51
2018-01-22T00:12:16.881Z,1011.51
2018-01-22T00:13:16.852Z,1011.46
2018-01-22T00:14:16.821Z,1011.45
2018-01-22T00:15:16.791Z,1011.42
2018-01-22T00:16:16.761Z,1011.45
2018-01-22T00:17:16.731Z,1011.38
2018-01-22T00:18:16.702Z,1011.33
2018-01-22T00:19:16.672Z,1011.32
2018-01-22T00:20:16.642Z,1011.29
2018-01-22T00:21:16.611Z,1011.25
2018-01-22T00:22:16.582Z,1011.25
2018-01-22T00:23:16.552Z,1011.23
2018-01-22T00:24:16.522Z,1011.24
2018-01-22T00:25:16.747Z,1011.23
2018-01-22T00:26:16.463Z,1011.21
2018-01-22T00:27:16.433Z,1011.19
2018-01-22T00:28:16.403Z,1011.13
2018-01-22T00:29:16.373Z,1011.19
2018-01-22T00:30:16.343Z,1011.16
2018-01-22T00:31:16.314Z,1011.16
2018-01-22T00:32:16.282Z,1011.20
2018-01-22T00:33:16.254Z,1011.21
2018-01-22T00:34:16.228Z,1011.21
2018-01-22T00:35:16.196Z,1011.21
2018-01-22T00:36:16.162Z,1011.18
2018-01-22T00:37:16.133Z,1011.17
2018-01-22T00:38:16.103Z,1011.13
2018-01-22T00:39:16.074Z,1011.07
2018-01-22T00:40:16.044Z,1010.99
2018-01-22T00:41:16.013Z,1010.95
2018-01-22T00:42:15.983Z,1010.94
2018-01-22T00:43:15.955Z,1010.87
2018-01-22T00:44:15.925Z,1010.86
2018-01-22T00:45:16.144Z,1010.82
2018-01-22T00:46:15.865Z,1010.79
2018-01-22T00:47:15.834Z,1010.82
2018-01-22T00:48:15.803Z,1010.74
2018-01-22T00:49:15.775Z,1010.69
2018-01-22T00:50:15.745Z,1010.63
2018-01-22T00:51:15.715Z,1010.70
2018-01-22T00:52:15.684Z,1010.65
2018-01-22T00:53:15.654Z,1010.67
2018-01-22T00:54:15.625Z,1010.66
2018-01-22T00:55:15.594Z,1010.64
2018-01-22T00:56:15.664Z,1010.64
2018-01-22T00:57:15.535Z,1010.62
2018-01-22T00:58:15.504Z,1010.50
2018-01-22T00:59:15.476Z,1010.55
2018-01-22T01:00:15.445Z,1010.49
2018-01-22T01:01:15.414Z,1010.49
2018-01-22T01:02:15.385Z,1010.46
2018-01-22T01:03:15.355Z,1010.48
2018-01-22T01:04:15.328Z,1010.48
2018-01-22T01:05:15.298Z,1010.56
2018-01-22T01:06:15.266Z,1010.57
2018-01-22T01:07:15.236Z,1010.55
2018-01-22T01:08:15.206Z,1010.57
2018-01-22T01:09:15.176Z,1010.63
2018-01-22T01:10:15.146Z,1010.64
2018-01-22T01:11:15.116Z,1010.63
2018-01-22T01:12:15.086Z,1010.62
2018-01-22T01:13:15.057Z,1010.54
2018-01-22T01:14:15.026Z,1010.51
2018-01-22T01:15:14.996Z,1010.45
2018-01-22T01:16:14.967Z,1010.44
2018-01-22T01:17:14.936Z,1010.38
2018-01-22T01:18:14.908Z,1010.41
2018-01-22T01:19:14.880Z,1010.38
2018-01-22T01:20:14.846Z,1010.39
2018-01-22T01:21:14.817Z,1010.36
2018-01-22T01:22:14.987Z,1010.33
2018-01-22T01:23:14.759Z,1010.31
2018-01-22T01:24:14.726Z,1010.25
2018-01-22T01:25:14.698Z,1010.25
2018-01-22T01:26:14.667Z,1010.23
2018-01-22T01:27:14.638Z,1010.21
2018-01-22T01:28:14.608Z,1010.25
2018-01-22T01:29:14.577Z,1010.22
2018-01-22T01:30:14.547Z,1010.26
2018-01-22T01:31:14.521Z,1010.22
2018-01-22T01:32:14.487Z,1010.22
2018-01-22T01:33:14.458Z,1010.15
2018-01-22T01:34:14.428Z,1010.17
2018-01-22T01:35:14.398Z,1010.15
2018-01-22T01:36:14.368Z,1010.13
2018-01-22T01:37:14.338Z,1010.09
2018-01-22T01:38:14.309Z,1010.12
2018-01-22T01:39:14.279Z,1010.13
2018-01-22T01:40:14.248Z,1010.09
2018-01-22T01:41:14.218Z,1010.11
2018-01-22T01:42:14.189Z,1010.10
2018-01-22T01:43:14.158Z,1010.11
2018-01-22T01:44:14.129Z,1010.10
2018-01-22T01:45:14.098Z,1010.09
2018-01-22T01:46:14.068Z,1010.08
2018-01-22T01:47:14.039Z,1010.03
2018-01-22T01:48:14.009Z,1010.05
2018-01-22T01:49:14.328Z,1010.06
2018-01-22T01:50:13.949Z,1010.04
2018-01-22T01:51:13.919Z,1010.07
2018-01-22T01:52:13.889Z,1010.02
2018-01-22T01:53:13.859Z,1010.05
2018-01-22T01:54:13.830Z,1009.92
2018-01-22T01:55:13.801Z,1010.00
2018-01-22T01:56:13.770Z,1010.00
2018-01-22T01:57:13.741Z,1010.01
2018-01-22T01:58:13.711Z,1010.01
2018-01-22T01:59:13.782Z,1010.05
2018-01-22T02:00:13.678Z,1010.07
2018-01-22T02:01:13.621Z,1010.09
2018-01-22T02:02:13.591Z,1010.07
2018-01-22T02:03:13.561Z,1010.07
2018-01-22T02:04:13.531Z,1010.12
2018-01-22T02:05:13.502Z,1010.06
2018-01-22T02:06:13.472Z,1010.01
2018-01-22T02:07:13.445Z,1010.00
2018-01-22T02:08:13.412Z,1009.98
2018-01-22T02:09:13.632Z,1009.96
2018-01-22T02:10:13.353Z,1009.95
2018-01-22T02:11:13.323Z,1009.92
2018-01-22T02:12:13.292Z,1009.98
2018-01-22T02:13:13.262Z,1009.92
2018-01-22T02:14:13.383Z,1009.90
2018-01-22T02:15:13.203Z,1009.94
2018-01-22T02:16:13.171Z,1009.96
2018-01-22T02:17:13.142Z,1009.97
2018-01-22T02:18:13.113Z,1009.99
2018-01-22T02:19:13.234Z,1009.97
2018-01-22T02:20:13.051Z,1009.93
2018-01-22T02:21:13.023Z,1009.92
2018-01-22T02:22:12.992Z,1009.91
2018-01-22T02:23:12.964Z,1009.85
2018-01-22T02:24:12.933Z,1009.85
2018-01-22T02:25:12.903Z,1009.86
2018-01-22T02:26:12.873Z,1009.84
2018-01-22T02:27:12.844Z,1009.78
2018-01-22T02:28:12.813Z,1009.72
2018-01-22T02:29:13.039Z,1009.70
2018-01-22T02:30:12.753Z,1009.70
2018-01-22T02:31:12.730Z,1009.69
2018-01-22T02:32:12.694Z,1009.64
2018-01-22T02:33:12.699Z,1009.58
2018-01-22T02:34:12.638Z,1009.62
2018-01-22T02:35:12.606Z,1009.56
2018-01-22T02:36:12.575Z,1009.51
2018-01-22T02:37:12.545Z,1009.50
2018-01-22T02:38:12.515Z,1009.49
2018-01-22T02:39:12.486Z,1009.49
2018-01-22T02:40:12.456Z,1009.45
2018-01-22T02:41:12.426Z,1009.40
2018-01-22T02:42:12.397Z,1009.33
2018-01-22T02:43:12.368Z,1009.34
2018-01-22T02:44:12.338Z,1009.30
2018-01-22T02:45:12.307Z,1009.24
2018-01-22T02:46:12.280Z,1009.22
2018-01-22T02:47:12.249Z,1009.21
2018-01-22T02:48:12.219Z,1009.19
2018-01-22T02:49:12.188Z,1009.17
2018-01-22T02:50:12.160Z,1009.16
2018-01-22T02:51:12.130Z,1009.15
2018-01-22T02:52:12.099Z,1009.11
2018-01-22T02:53:12.069Z,1009.09
2018-01-22T02:54:12.040Z,1009.08
2018-01-22T02:55:12.012Z,1009.03
2018-01-22T02:56:12.131Z,1009.00
2018-01-22T02:57:11.950Z,1008.95
2018-01-22T02:58:11.921Z,1008.95
2018-01-22T02:59:11.891Z,1008.95
2018-01-22T03:00:11.861Z,1008.92
2018-01-22T03:01:11.981Z,1008.92
2018-01-22T03:02:11.805Z,1008.94
2018-01-22T03:03:11.773Z,1008.88
2018-01-22T03:04:11.742Z,1008.89
2018-01-22T03:05:11.712Z,1008.87
2018-01-22T03:06:11.684Z,1008.83
2018-01-22T03:07:11.654Z,1008.77
2018-01-22T03:08:11.622Z,1008.72
2018-01-22T03:09:11.594Z,1008.70
2018-01-22T03:10:11.563Z,1008.70
2018-01-22T03:11:11.535Z,1008.67
2018-01-22T03:12:11.504Z,1008.69
2018-01-22T03:13:11.479Z,1008.69
2018-01-22T03:14:11.445Z,1008.66
2018-01-22T03:15:11.414Z,1008.66
2018-01-22T03:16:11.385Z,1008.60
2018-01-22T03:17:11.354Z,1008.59
2018-01-22T03:18:11.324Z,1008.54
2018-01-22T03:19:11.295Z,1008.52
2018-01-22T03:20:11.265Z,1008.50
2018-01-22T03:21:11.235Z,1008.56
2018-01-22T03:22:11.205Z,1008.53
2018-01-22T03:23:11.176Z,1008.53
2018-01-22T03:24:11.145Z,1008.48
2018-01-22T03:25:11.116Z,1008.43
2018-01-22T03:26:11.086Z,1008.41
2018-01-22T03:27:11.058Z,1008.40
2018-01-22T03:28:11.027Z,1008.42
2018-01-22T03:29:10.997Z,1008.47
2018-01-22T03:30:10.969Z,1008.50
2018-01-22T03:31:11.088Z,1008.47
2018-01-22T03:32:10.907Z,1008.50
2018-01-22T03:33:10.878Z,1008.56
2018-01-22T03:34:10.849Z,1008.52
2018-01-22T03:35:10.818Z,1008.56
2018-01-22T03:36:10.789Z,1008.54
2018-01-22T03:37:10.759Z,1008.55
2018-01-22T03:38:10.730Z,1008.57
2018-01-22T03:39:10.700Z,1008.54
2018-01-22T03:40:10.669Z,1008.56
2018-01-22T03:41:10.797Z,1008.51
2018-01-22T03:42:10.610Z,1008.49
2018-01-22T03:43:10.582Z,1008.45
2018-01-22T03:44:10.551Z,1008.43
2018-01-22T03:45:10.523Z,1008.38
2018-01-22T03:46:10.493Z,1008.34
2018-01-22T03:47:10.464Z,1008.29
2018-01-22T03:48:10.435Z,1008.30
2018-01-22T03:49:10.404Z,1008.24
2018-01-22T03:50:10.374Z,1008.21
2018-01-22T03:51:10.344Z,1008.27
2018-01-22T03:52:10.315Z,1008.27
2018-01-22T03:53:10.535Z,1008.26
2018-01-22T03:54:10.257Z,1008.24
2018-01-22T03:55:10.226Z,1008.20
2018-01-22T03:56:10.197Z,1008.13
2018-01-22T03:57:10.166Z,1008.13
2018-01-22T03:58:10.138Z,1008.12
2018-01-22T03:59:10.109Z,1008.14
2018-01-22T04:00:10.077Z,1008.20
2018-01-22T04:01:10.048Z,1008.19
2018-01-22T04:02:10.019Z,1008.14
2018-01-22T04:03:09.990Z,1008.10
2018-01-22T04:04:10.109Z,1008.04
2018-01-22T04:05:09.932Z,1008.07
2018-01-22T04:06:09.902Z,1008.03
2018-01-22T04:07:09.873Z,1008.05
2018-01-22T04:08:09.843Z,1008.03
2018-01-22T04:09:09.813Z,1008.03
2018-01-22T04:10:09.784Z,1008.10
2018-01-22T04:11:09.753Z,1008.14
2018-01-22T04:12:09.723Z,1008.19
2018-01-22T04:13:09.693Z,1008.21
2018-01-22T04:14:09.665Z,1008.27
2018-01-22T04:15:09.636Z,1008.29
2018-01-22T04:16:09.606Z,1008.28
2018-01-22T04:17:09.577Z,1008.19
2018-01-22T04:18:09.547Z,1008.12
2018-01-22T04:19:09.518Z,1008.12
2018-01-22T04:20:09.488Z,1008.10
2018-01-22T04:21:09.462Z,1008.04
2018-01-22T04:22:09.429Z,1008.08
2018-01-22T04:23:09.403Z,1008.14
2018-01-22T04:24:09.368Z,1008.09
2018-01-22T04:25:09.339Z,1008.12
2018-01-22T04:26:09.310Z,1008.10
2018-01-22T04:27:09.282Z,1008.08
2018-01-22T04:28:09.251Z,1008.03
2018-01-22T04:29:09.222Z,1008.04
2018-01-22T04:30:09.443Z,1007.99
2018-01-22T04:31:09.162Z,1007.92
2018-01-22T04:32:09.133Z,1007.87
2018-01-22T04:33:09.102Z,1007.82
2018-01-22T04:34:09.074Z,1007.82
2018-01-22T04:35:09.044Z,1007.84
2018-01-22T04:36:09.014Z,1007.88
2018-01-22T04:37:08.985Z,1007.87
2018-01-22T04:38:08.955Z,1007.90
2018-01-22T04:39:08.926Z,1007.88
2018-01-22T04:40:08.896Z,1007.86
2018-01-22T04:41:08.868Z,1007.88
2018-01-22T04:42:08.837Z,1007.90
2018-01-22T04:43:08.812Z,1007.81
2018-01-22T04:44:08.779Z,1007.86
2018-01-22T04:45:08.749Z,1007.88
2018-01-22T04:46:08.722Z,1007.84
2018-01-22T04:47:08.691Z,1007.87
2018-01-22T04:48:08.660Z,1007.85
2018-01-22T04:49:08.630Z,1007.88
2018-01-22T04:50:08.602Z,1007.85
2018-01-22T04:51:08.573Z,1007.82
2018-01-22T04:52:08.542Z,1007.84
2018-01-22T04:53:08.512Z,1007.86
2018-01-22T04:54:08.484Z,1007.80
2018-01-22T04:55:08.452Z,1007.79
2018-01-22T04:56:08.423Z,1007.79
2018-01-22T04:57:08.393Z,1007.77
2018-01-22T04:58:08.364Z,1007.71
2018-01-22T04:59:08.336Z,1007.68
2018-01-22T05:00:08.305Z,1007.65
2018-01-22T05:01:08.275Z,1007.61
2018-01-22T05:02:08.246Z,1007.58
2018-01-22T05:03:08.220Z,1007.59
2018-01-22T05:04:08.186Z,1007.59
2018-01-22T05:05:08.158Z,1007.54
2018-01-22T05:06:08.129Z,1007.59
2018-01-22T05:07:08.100Z,1007.58
2018-01-22T05:08:08.169Z,1007.53
2018-01-22T05:09:08.040Z,1007.53
2018-01-22T05:10:08.010Z,1007.50
2018-01-22T05:11:07.982Z,1007.52
2018-01-22T05:12:07.951Z,1007.46
2018-01-22T05:13:07.922Z,1007.38
2018-01-22T05:14:07.892Z,1007.33
2018-01-22T05:15:07.865Z,1007.31
2018-01-22T05:16:07.834Z,1007.29
2018-01-22T05:17:07.805Z,1007.36
2018-01-22T05:18:07.775Z,1007.32
2018-01-22T05:19:07.746Z,1007.33
2018-01-22T05:20:07.715Z,1007.33
2018-01-22T05:21:07.686Z,1007.34
2018-01-22T05:22:07.657Z,1007.29
2018-01-22T05:23:07.627Z,1007.25
2018-01-22T05:24:07.598Z,1007.22
2018-01-22T05:25:07.569Z,1007.18
2018-01-22T05:26:07.539Z,1007.19
2018-01-22T05:27:07.510Z,1007.16
2018-01-22T05:28:07.479Z,1007.21
2018-01-22T05:29:07.451Z,1007.15
2018-01-22T05:30:07.422Z,1007.15
2018-01-22T05:31:07.393Z,1007.08
2018-01-22T05:32:07.363Z,1007.07
2018-01-22T05:33:07.332Z,1007.01
2018-01-22T05:34:07.304Z,1006.98
2018-01-22T05:35:07.274Z,1006.98
2018-01-22T05:36:07.244Z,1006.99
2018-01-22T05:37:07.216Z,1007.04
2018-01-22T05:38:07.185Z,1007.11
2018-01-22T05:39:07.157Z,1007.04
2018-01-22T05:40:07.127Z,1007.11
2018-01-22T05:41:07.098Z,1007.03
2018-01-22T05:42:07.072Z,1006.98
2018-01-22T05:43:07.038Z,1006.99
2018-01-22T05:44:07.009Z,1007.02
2018-01-22T05:45:06.980Z,1006.99
2018-01-22T05:46:06.951Z,1006.99
2018-01-22T05:47:06.926Z,1007.02
2018-01-22T05:48:06.891Z,1006.98
2018-01-22T05:49:06.873Z,1007.01
2018-01-22T05:50:06.833Z,1007.01
2018-01-22T05:51:06.804Z,1006.92
2018-01-22T05:52:06.775Z,1006.96
2018-01-22T05:53:06.744Z,1006.90
2018-01-22T05:54:06.716Z,1006.93
2018-01-22T05:55:06.686Z,1006.96
2018-01-22T05:56:06.656Z,1006.92
2018-01-22T05:57:06.626Z,1006.97
2018-01-22T05:58:06.598Z,1007.01
2018-01-22T05:59:06.573Z,1006.99
2018-01-22T06:00:06.541Z,1006.99
2018-01-22T06:01:06.709Z,1007.05
2018-01-22T06:02:06.480Z,1007.09
2018-01-22T06:03:06.452Z,1007.16
2018-01-22T06:04:06.421Z,1007.16
2018-01-22T06:05:06.392Z,1007.23
2018-01-22T06:06:06.363Z,1007.22
2018-01-22T06:07:06.334Z,1007.15
2018-01-22T06:08:06.304Z,1007.12
2018-01-22T06:09:06.275Z,1007.14
2018-01-22T06:10:06.247Z,1007.10
2018-01-22T06:11:06.217Z,1007.10
2018-01-22T06:12:06.336Z,1007.04
2018-01-22T06:13:06.158Z,1007.04
2018-01-22T06:14:06.130Z,1006.99
2018-01-22T06:15:06.100Z,1006.96
2018-01-22T06:16:06.069Z,1006.94
2018-01-22T06:17:06.041Z,1006.93
2018-01-22T06:18:06.011Z,1006.95
2018-01-22T06:19:05.982Z,1006.94
2018-01-22T06:20:05.953Z,1006.96
2018-01-22T06:21:05.924Z,1006.96
2018-01-22T06:22:05.894Z,1006.96
2018-01-22T06:23:05.866Z,1006.95
2018-01-22T06:24:05.838Z,1006.92
2018-01-22T06:25:05.806Z,1006.92
2018-01-22T06:26:05.778Z,1006.92
2018-01-22T06:27:05.999Z,1006.89
2018-01-22T06:28:05.719Z,1006.90
2018-01-22T06:29:05.689Z,1006.85
2018-01-22T06:30:05.661Z,1006.80
2018-01-22T06:31:05.631Z,1006.82
2018-01-22T06:32:05.607Z,1006.78
2018-01-22T06:33:05.572Z,1006.80
2018-01-22T06:34:05.543Z,1006.80
2018-01-22T06:35:05.516Z,1006.78
2018-01-22T06:36:05.486Z,1006.77
2018-01-22T06:37:05.605Z,1006.80
2018-01-22T06:38:05.428Z,1006.80
2018-01-22T06:39:05.399Z,1006.75
2018-01-22T06:40:05.368Z,1006.74
2018-01-22T06:41:05.340Z,1006.71
2018-01-22T06:42:05.410Z,1006.66
2018-01-22T06:43:05.281Z,1006.61
2018-01-22T06:44:05.253Z,1006.61
2018-01-22T06:45:05.222Z,1006.57
2018-01-22T06:46:05.194Z,1006.46
2018-01-22T06:47:05.172Z,1006.53
2018-01-22T06:48:05.134Z,1006.50
2018-01-22T06:49:05.106Z,1006.50
2018-01-22T06:50:05.123Z,1006.50
2018-01-22T06:51:05.046Z,1006.44
2018-01-22T06:52:05.017Z,1006.45
2018-01-22T06:53:04.988Z,1006.46
2018-01-22T06:54:04.961Z,1006.48
2018-01-22T06:55:04.929Z,1006.47
2018-01-22T06:56:04.899Z,1006.45
2018-01-22T06:57:04.870Z,1006.45
2018-01-22T06:58:04.841Z,1006.48
2018-01-22T06:59:04.813Z,1006.45
2018-01-22T07:00:04.782Z,1006.40
2018-01-22T07:01:04.754Z,1006.42
2018-01-22T07:02:04.975Z,1006.38
2018-01-22T07:03:04.695Z,1006.41
2018-01-22T07:04:04.665Z,1006.38
2018-01-22T07:05:04.637Z,1006.29
2018-01-22T07:06:04.609Z,1006.26
2018-01-22T07:07:04.728Z,1006.31
2018-01-22T07:08:04.549Z,1006.28
2018-01-22T07:09:04.519Z,1006.22
2018-01-22T07:10:04.490Z,1006.21
2018-01-22T07:11:04.461Z,1006.20
2018-01-22T07:12:04.432Z,1006.12
2018-01-22T07:13:04.402Z,1006.17
2018-01-22T07:14:04.373Z,1006.14
2018-01-22T07:15:04.344Z,1006.12
2018-01-22T07:16:04.314Z,1006.12
2018-01-22T07:17:04.286Z,1006.14
2018-01-22T07:18:04.256Z,1006.17
2018-01-22T07:19:04.228Z,1006.17
2018-01-22T07:20:04.196Z,1006.18
2018-01-22T07:21:04.167Z,1006.16
2018-01-22T07:22:04.138Z,1006.19
2018-01-22T07:23:04.109Z,1006.14
2018-01-22T07:24:04.080Z,1006.18
2018-01-22T07:25:04.050Z,1006.18
2018-01-22T07:26:04.022Z,1006.16
2018-01-22T07:27:03.992Z,1006.16
2018-01-22T07:28:03.961Z,1006.18
2018-01-22T07:29:04.133Z,1006.18
2018-01-22T07:30:03.905Z,1006.16
2018-01-22T07:31:03.876Z,1006.17
2018-01-22T07:32:03.844Z,1006.20
2018-01-22T07:33:03.815Z,1006.24
2018-01-22T07:34:03.793Z,1006.25
2018-01-22T07:35:03.757Z,1006.25
2018-01-22T07:36:03.727Z,1006.22
2018-01-22T07:37:03.699Z,1006.24
2018-01-22T07:38:03.670Z,1006.22
2018-01-22T07:39:03.642Z,1006.20
2018-01-22T07:40:03.611Z,1006.19
2018-01-22T07:41:03.582Z,1006.18
2018-01-22T07:42:03.553Z,1006.19
2018-01-22T07:43:03.525Z,1006.19
2018-01-22T07:44:03.494Z,1006.16
2018-01-22T07:45:03.465Z,1006.14
2018-01-22T07:46:03.436Z,1006.12
2018-01-22T07:47:03.657Z,1006.10
2018-01-22T07:48:03.377Z,1006.12
2018-01-22T07:49:03.349Z,1006.14
2018-01-22T07:50:03.319Z,1006.10
2018-01-22T07:51:03.290Z,1006.12
2018-01-22T07:52:03.261Z,1006.09
2018-01-22T07:53:03.233Z,1006.04
2018-01-22T07:54:03.204Z,1006.05
2018-01-22T07:55:03.174Z,1006.07
2018-01-22T07:56:03.145Z,1006.07
2018-01-22T07:57:03.365Z,1006.07
2018-01-22T07:58:03.086Z,1006.08
2018-01-22T07:59:03.057Z,1006.05
2018-01-22T08:00:03.032Z,1006.06
2018-01-22T08:01:03.000Z,1006.01
2018-01-22T08:02:02.971Z,1005.99
2018-01-22T08:03:02.941Z,1005.99
2018-01-22T08:04:02.912Z,1006.03
2018-01-22T08:05:02.888Z,1005.99
2018-01-22T08:06:02.857Z,1005.99
2018-01-22T08:07:02.826Z,1005.99
2018-01-22T08:08:02.797Z,1005.96
2018-01-22T08:09:02.767Z,1005.94
2018-01-22T08:10:02.738Z,1005.94
2018-01-22T08:11:02.708Z,1005.94
2018-01-22T08:12:02.678Z,1005.91
2018-01-22T08:13:02.650Z,1005.92
2018-01-22T08:14:02.621Z,1005.92
2018-01-22T08:15:02.593Z,1005.95
2018-01-22T08:16:02.562Z,1005.88
2018-01-22T08:17:02.535Z,1005.93
2018-01-22T08:18:02.504Z,1005.85
2018-01-22T08:19:02.476Z,1005.87
2018-01-22T08:20:02.446Z,1005.91
2018-01-22T08:21:02.418Z,1005.87
2018-01-22T08:22:02.389Z,1005.83
2018-01-22T08:23:02.359Z,1005.83
2018-01-22T08:24:02.330Z,1005.86
2018-01-22T08:25:02.450Z,1005.86
2018-01-22T08:26:02.273Z,1005.87
2018-01-22T08:27:02.243Z,1005.79
2018-01-22T08:28:02.213Z,1005.86
2018-01-22T08:29:02.185Z,1005.91
2018-01-22T08:30:02.157Z,1005.95
2018-01-22T08:31:02.127Z,1005.92
2018-01-22T08:32:02.098Z,1005.95
2018-01-22T08:33:02.069Z,1005.90
2018-01-22T08:34:02.041Z,1005.93
2018-01-22T08:35:02.012Z,1005.88
2018-01-22T08:36:01.982Z,1005.90
2018-01-22T08:37:02.254Z,1005.87
2018-01-22T08:38:01.924Z,1005.89
2018-01-22T08:39:01.896Z,1005.87
2018-01-22T08:40:01.866Z,1005.84
2018-01-22T08:41:01.839Z,1005.81
2018-01-22T08:42:01.837Z,1005.80
2018-01-22T08:43:01.782Z,1005.79
2018-01-22T08:44:01.751Z,1005.79
2018-01-22T08:45:01.723Z,1005.74
2018-01-22T08:46:01.695Z,1005.69
2018-01-22T08:47:01.666Z,1005.69
2018-01-22T08:48:01.636Z,1005.65
2018-01-22T08:49:01.608Z,1005.69
2018-01-22T08:50:01.580Z,1005.69
2018-01-22T08:51:01.550Z,1005.68
2018-01-22T08:52:01.519Z,1005.70
2018-01-22T08:53:01.496Z,1005.68
2018-01-22T08:54:01.462Z,1005.67
2018-01-22T08:55:01.534Z,1005.61
2018-01-22T08:56:01.405Z,1005.61
2018-01-22T08:57:01.376Z,1005.59
2018-01-22T08:58:01.346Z,1005.52
2018-01-22T08:59:01.317Z,1005.56
2018-01-22T09:00:01.287Z,1005.50
2018-01-22T09:01:01.259Z,1005.48
2018-01-22T09:02:01.231Z,1005.41
2018-01-22T09:03:01.203Z,1005.38
2018-01-22T09:04:01.172Z,1005.36
2018-01-22T09:05:01.145Z,1005.41
2018-01-22T09:06:01.114Z,1005.36
2018-01-22T09:07:01.085Z,1005.34
2018-01-22T09:08:01.056Z,1005.33
2018-01-22T09:09:01.028Z,1005.32
2018-01-22T09:10:01.000Z,1005.24
2018-01-22T09:11:00.970Z,1005.27
2018-01-22T09:12:00.942Z,1005.17
2018-01-22T09:13:00.912Z,1005.09
2018-01-22T09:14:00.886Z,1005.08
2018-01-22T09:15:00.854Z,1004.98
2018-01-22T09:16:00.827Z,1005.08
2018-01-22T09:17:00.797Z,1005.11
2018-01-22T09:18:00.769Z,1005.09
2018-01-22T09:19:00.742Z,1005.13
2018-01-22T09:20:00.710Z,1005.09
2018-01-22T09:21:00.831Z,1005.04
2018-01-22T09:22:00.652Z,1004.95
2018-01-22T09:23:00.624Z,1004.91
2018-01-22T09:24:00.594Z,1004.85
2018-01-22T09:25:00.566Z,1004.88
2018-01-22T09:26:00.537Z,1004.84
2018-01-22T09:27:00.508Z,1004.90
2018-01-22T09:28:00.481Z,1004.94
2018-01-22T09:29:00.451Z,1005.03
2018-01-22T09:30:00.422Z,1004.99
2018-01-22T09:31:00.393Z,1005.09
2018-01-22T09:32:00.364Z,1005.06
2018-01-22T09:33:00.334Z,1005.12
2018-01-22T09:34:00.305Z,1005.14
2018-01-22T09:35:00.277Z,1005.14
2018-01-22T09:36:00.248Z,1005.11
2018-01-22T09:37:00.219Z,1005.04
2018-01-22T09:38:00.190Z,1005.08
2018-01-22T09:39:00.167Z,1005.12
2018-01-22T09:40:00.134Z,1005.14
2018-01-22T09:41:00.105Z,1005.16
2018-01-22T09:42:00.076Z,1005.19
2018-01-22T09:43:00.051Z,1005.25
2018-01-22T09:44:00.020Z,1005.25
2018-01-22T09:44:59.990Z,1005.25
2018-01-22T09:46:00.210Z,1005.21
2018-01-22T09:46:59.938Z,1005.27
2018-01-22T09:47:59.902Z,1005.25
2018-01-22T09:48:59.882Z,1005.25
2018-01-22T09:49:59.847Z,1005.29
2018-01-22T09:50:59.967Z,1005.32
2018-01-22T09:51:59.786Z,1005.28
2018-01-22T09:52:59.759Z,1005.26
2018-01-22T09:53:59.730Z,1005.22
2018-01-22T09:54:59.702Z,1005.24
2018-01-22T09:55:59.922Z,1005.27
2018-01-22T09:56:59.644Z,1005.32
2018-01-22T09:57:59.615Z,1005.28
2018-01-22T09:58:59.586Z,1005.23
2018-01-22T09:59:59.557Z,1005.25
2018-01-22T10:00:59.529Z,1005.19
2018-01-22T10:01:59.500Z,1005.20
2018-01-22T10:02:59.470Z,1005.25
2018-01-22T10:03:59.442Z,1005.27
2018-01-22T10:04:59.412Z,1005.25
2018-01-22T10:05:59.386Z,1005.31
2018-01-22T10:06:59.356Z,1005.29
2018-01-22T10:07:59.327Z,1005.29
2018-01-22T10:08:59.325Z,1005.24
2018-01-22T10:09:59.274Z,1005.23
2018-01-22T10:10:59.241Z,1005.24
2018-01-22T10:11:59.211Z,1005.23
2018-01-22T10:12:59.182Z,1005.19
2018-01-22T10:13:59.153Z,1005.24
2018-01-22T10:14:59.128Z,1005.22
2018-01-22T10:15:59.096Z,1005.18
2018-01-22T10:16:59.067Z,1005.24
2018-01-22T10:17:59.039Z,1005.21
2018-01-22T10:18:59.010Z,1005.15
2018-01-22T10:19:58.980Z,1005.19
2018-01-22T10:20:58.951Z,1005.17
2018-01-22T10:21:58.923Z,1005.16
2018-01-22T10:22:58.896Z,1005.11
2018-01-22T10:23:58.866Z,1005.13
2018-01-22T10:24:58.836Z,1005.10
2018-01-22T10:25:58.809Z,1005.06
2018-01-22T10:26:58.930Z,1005.09
2018-01-22T10:27:58.753Z,1005.05
2018-01-22T10:28:58.722Z,1005.10
2018-01-22T10:29:58.694Z,1005.08
2018-01-22T10:30:58.665Z,1005.08
2018-01-22T10:31:58.636Z,1005.07
2018-01-22T10:32:58.608Z,1005.02
2018-01-22T10:33:58.579Z,1005.03
2018-01-22T10:34:58.550Z,1005.02
2018-01-22T10:35:58.521Z,1005.04
2018-01-22T10:36:58.492Z,1005.03
2018-01-22T10:37:58.463Z,1005.04
2018-01-22T10:38:58.435Z,1005.03
2018-01-22T10:39:58.409Z,1004.99
2018-01-22T10:40:58.380Z,1005.00
2018-01-22T10:41:58.349Z,1004.93
2018-01-22T10:42:58.320Z,1004.90
2018-01-22T10:43:58.292Z,1004.89
2018-01-22T10:44:58.263Z,1004.95
2018-01-22T10:45:58.235Z,1004.94
2018-01-22T10:46:58.206Z,1004.96
2018-01-22T10:47:58.176Z,1004.90
2018-01-22T10:48:58.149Z,1004.91
2018-01-22T10:49:58.120Z,1004.90
2018-01-22T10:50:58.090Z,1004.87
2018-01-22T10:51:58.062Z,1004.88
2018-01-22T10:52:58.034Z,1004.84
2018-01-22T10:53:58.004Z,1004.84
2018-01-22T10:54:57.976Z,1004.83
2018-01-22T10:55:57.946Z,1004.81
2018-01-22T10:56:57.919Z,1004.84
2018-01-22T10:57:57.890Z,1004.84
2018-01-22T10:58:57.861Z,1004.80
2018-01-22T10:59:57.833Z,1004.81
2018-01-22T11:00:58.055Z,1004.84
2018-01-22T11:01:57.776Z,1004.86
2018-01-22T11:02:57.752Z,1004.84
2018-01-22T11:03:57.718Z,1004.88
2018-01-22T11:04:57.689Z,1004.93
2018-01-22T11:05:57.661Z,1004.86
2018-01-22T11:06:57.633Z,1004.92
2018-01-22T11:07:57.602Z,1004.91
2018-01-22T11:08:57.574Z,1004.93
2018-01-22T11:09:57.546Z,1004.91
2018-01-22T11:10:57.562Z,1004.94
2018-01-22T11:11:57.488Z,1004.96
2018-01-22T11:12:57.459Z,1004.99
2018-01-22T11:13:57.431Z,1004.97
2018-01-22T11:14:57.404Z,1004.95
2018-01-22T11:15:57.373Z,1004.96
2018-01-22T11:16:57.346Z,1004.89
2018-01-22T11:17:57.318Z,1004.91
2018-01-22T11:18:57.289Z,1004.95
2018-01-22T11:19:57.259Z,1004.95
2018-01-22T11:20:57.231Z,1004.92
2018-01-22T11:21:57.203Z,1004.98
2018-01-22T11:22:57.175Z,1004.95
2018-01-22T11:23:57.144Z,1004.92
2018-01-22T11:24:57.117Z,1004.93
2018-01-22T11:25:57.088Z,1004.90
2018-01-22T11:26:57.061Z,1004.89
2018-01-22T11:27:57.031Z,1004.89
2018-01-22T11:28:57.003Z,1004.87
2018-01-22T11:29:56.974Z,1004.89
2018-01-22T11:30:56.946Z,1004.86
2018-01-22T11:31:56.915Z,1004.83
2018-01-22T11:32:56.887Z,1004.85
2018-01-22T11:33:56.860Z,1004.74
2018-01-22T11:34:56.834Z,1004.75
2018-01-22T11:35:56.801Z,1004.72
2018-01-22T11:36:56.821Z,1004.69
2018-01-22T11:37:56.744Z,1004.70
2018-01-22T11:38:56.717Z,1004.66
2018-01-22T11:39:56.686Z,1004.69
2018-01-22T11:40:56.659Z,1004.65
2018-01-22T11:41:56.630Z,1004.71
2018-01-22T11:42:56.603Z,1004.68
2018-01-22T11:43:56.573Z,1004.70
2018-01-22T11:44:56.544Z,1004.66
2018-01-22T11:45:56.515Z,1004.60
2018-01-22T11:46:56.488Z,1004.58
2018-01-22T11:47:56.461Z,1004.52
2018-01-22T11:48:56.469Z,1004.50
2018-01-22T11:49:56.403Z,1004.52
2018-01-22T11:50:56.374Z,1004.49
2018-01-22T11:51:56.344Z,1004.44
2018-01-22T11:52:56.320Z,1004.41
2018-01-22T11:53:56.288Z,1004.43
2018-01-22T11:54:56.510Z,1004.43
2018-01-22T11:55:56.245Z,1004.46
2018-01-22T11:56:56.206Z,1004.40
2018-01-22T11:57:56.175Z,1004.37
2018-01-22T11:58:56.147Z,1004.36
2018-01-22T11:59:56.366Z,1004.40
2018-01-22T12:00:56.089Z,1004.41
2018-01-22T12:01:56.060Z,1004.43
2018-01-22T12:02:56.034Z,1004.43
2018-01-22T12:03:56.005Z,1004.45
2018-01-22T12:04:55.974Z,1004.49